createdAt,value
2022-12-03T08:27:43.984Z,96486.19
2022-12-03T08:29:47.255Z,96497.38
2022-12-03T08:31:52.534Z,96485.97
2022-12-03T08:33:59.908Z,96491.69
2022-12-03T08:36:13.197Z,96496.34
2022-12-03T08:38:16.625Z,96495.69
2022-12-03T08:40:24.755Z,96494.16
2022-12-03T08:42:44.157Z,96489.41
2022-12-03T08:44:48.759Z,96492.41
2022-12-03T08:46:55.292Z,96488.03
2022-12-03T08:48:57.945Z,96480.97
2022-12-03T08:51:05.042Z,96477.59
2022-12-03T08:53:24.442Z,96481.28
2022-12-03T08:55:35.489Z,96472.66
2022-12-03T08:57:38.307Z,96465.59
2022-12-03T08:59:45.321Z,96470.50
2022-12-03T09:01:50.242Z,96471.75
2022-12-03T09:03:55.469Z,96467.53
2022-12-03T09:05:58.411Z,96479.53
2022-12-03T09:08:01.293Z,96482.78
2022-12-03T09:10:04.255Z,96479.75
2022-12-03T09:12:07.561Z,96480.38
2022-12-03T09:14:15.104Z,96482.00
2022-12-03T09:16:21.048Z,96476.38
2022-12-03T09:18:25.166Z,96483.91
2022-12-03T09:20:27.917Z,96481.88
2022-12-03T09:22:30.680Z,96479.66
2022-12-03T09:24:33.323Z,96480.47
2022-12-03T09:26:36.193Z,96490.66
2022-12-03T09:28:38.882Z,96490.47
2022-12-03T09:30:42.015Z,96488.44
2022-12-03T09:32:44.693Z,96489.88
2022-12-03T09:34:48.885Z,96484.59
2022-12-03T09:36:51.583Z,96495.16
2022-12-03T09:38:54.279Z,96503.69
2022-12-03T09:40:57.118Z,96491.50
2022-12-03T09:43:00.606Z,96502.88
2022-12-03T09:45:04.840Z,96492.31
2022-12-03T09:47:08.799Z,96494.78
2022-12-03T09:49:16.009Z,96495.59
2022-12-03T09:51:20.446Z,96491.75
2022-12-03T09:53:27.737Z,96498.66
2022-12-03T09:55:30.831Z,96500.91
2022-12-03T09:57:33.641Z,96505.81
2022-12-03T09:59:36.308Z,96500.34
2022-12-03T10:01:39.069Z,96490.97
2022-12-03T10:03:46.274Z,96498.28
2022-12-03T10:05:49.160Z,96496.44
2022-12-03T10:07:53.820Z,96495.63
2022-12-03T10:09:56.857Z,96492.81
2022-12-03T10:12:01.134Z,96492.81
2022-12-03T10:14:03.857Z,96484.69
2022-12-03T10:16:10.265Z,96485.34
2022-12-03T10:18:19.101Z,96474.97
2022-12-03T10:20:23.939Z,96476.59
2022-12-03T10:22:26.809Z,96478.44
2022-12-03T10:24:32.729Z,96472.97
2022-12-03T10:26:40.534Z,96471.94
2022-12-03T10:28:46.755Z,96459.19
2022-12-03T10:30:54.668Z,96450.25
2022-12-03T10:32:58.935Z,96453.69
2022-12-03T10:35:09.776Z,96457.16
2022-12-03T10:37:15.533Z,96456.34
2022-12-03T10:39:18.385Z,96459.19
2022-12-03T10:41:25.949Z,96453.91
2022-12-03T10:43:28.652Z,96459.19
2022-12-03T10:45:31.474Z,96450.25
2022-12-03T10:47:34.419Z,96457.31
2022-12-03T10:49:37.417Z,96448.53
2022-12-03T10:51:40.422Z,96449.94
2022-12-03T10:53:43.259Z,96452.59
2022-12-03T10:55:47.794Z,96441.16
2022-12-03T10:57:51.963Z,96438.72
2022-12-03T10:59:54.767Z,96440.56
2022-12-03T11:01:57.802Z,96440.56
2022-12-03T11:04:05.473Z,96438.28
2022-12-03T11:06:16.085Z,96434.00
2022-12-03T11:08:20.721Z,96433.19
2022-12-03T11:10:23.729Z,96426.50
2022-12-03T11:12:29.131Z,96428.13
2022-12-03T11:15:06.309Z,96421.84
2022-12-03T11:17:12.034Z,96424.94
2022-12-03T11:19:19.749Z,96435.09
2022-12-03T11:21:23.610Z,96448.47
2022-12-03T11:24:16.779Z,96441.97
2022-12-03T11:26:58.249Z,96442.03
2022-12-03T11:29:02.411Z,96445.50
2022-12-03T11:31:12.191Z,96435.78
2022-12-03T11:33:22.709Z,96442.88
2022-12-03T11:35:28.817Z,96427.84
2022-12-03T11:37:31.642Z,96440.81
2022-12-03T11:40:09.775Z,96438.59
2022-12-03T11:42:39.808Z,96441.66
2022-12-03T11:44:43.821Z,96436.22
2022-12-03T11:46:48.239Z,96434.56
2022-12-03T11:48:53.583Z,96436.38
2022-12-03T11:50:56.232Z,96440.69
2022-12-03T11:53:02.297Z,96450.03
2022-12-03T11:55:15.755Z,96447.00
2022-12-03T11:57:27.434Z,96444.97
2022-12-03T11:59:30.257Z,96454.31
2022-12-03T12:01:38.955Z,96449.22
2022-12-03T12:03:45.010Z,96445.59
2022-12-03T12:05:47.839Z,96436.03
2022-12-03T12:07:51.116Z,96436.03
2022-12-03T12:09:55.532Z,96435.03
2022-12-03T12:12:19.173Z,96426.75
2022-12-03T12:14:27.747Z,96427.97
2022-12-03T12:16:40.930Z,96421.06
2022-12-03T12:18:44.713Z,96413.16
2022-12-03T12:20:47.502Z,96409.50
2022-12-03T12:22:50.232Z,96407.47
2022-12-03T12:24:55.032Z,96404.44
2022-12-03T12:26:58.434Z,96405.84
2022-12-03T12:29:01.039Z,96398.34
2022-12-03T12:31:03.811Z,96404.22
2022-12-03T12:33:20.752Z,96399.97
2022-12-03T12:35:24.865Z,96406.47
2022-12-03T12:37:34.101Z,96410.53
2022-12-03T12:39:36.873Z,96395.50
2022-12-03T12:41:40.226Z,96397.31
2022-12-03T12:43:42.984Z,96390.63
2022-12-03T12:45:45.790Z,96383.47
2022-12-03T12:47:54.593Z,96381.94
2022-12-03T12:49:59.321Z,96384.72
2022-12-03T12:52:02.086Z,96387.94
2022-12-03T12:54:11.210Z,96383.09
2022-12-03T12:56:16.911Z,96379.88
2022-12-03T12:58:20.863Z,96379.50
2022-12-03T13:00:24.856Z,96388.84
2022-12-03T13:02:42.008Z,96387.19
2022-12-03T13:04:44.747Z,96381.44
2022-12-03T13:06:50.230Z,96384.91
2022-12-03T13:08:53.854Z,96384.09
2022-12-03T13:10:57.733Z,96374.97
2022-12-03T13:13:02.460Z,96378.25
2022-12-03T13:15:31.730Z,96382.34
2022-12-03T13:17:34.654Z,96386.78
2022-12-03T13:20:00.624Z,96385.53
2022-12-03T13:22:03.235Z,96375.19
2022-12-03T13:24:27.895Z,96381.53
2022-12-03T13:26:39.218Z,96371.78
2022-12-03T13:28:42.963Z,96366.09
2022-12-03T13:30:45.889Z,96375.44
2022-12-03T13:32:48.595Z,96370.19
2022-12-03T13:34:51.522Z,96382.34
2022-12-03T13:36:57.919Z,96370.81
2022-12-03T13:39:03.307Z,96375.91
2022-12-03T13:41:06.207Z,96364.13
2022-12-03T13:43:12.185Z,96366.78
2022-12-03T13:45:39.810Z,96375.03
2022-12-03T13:47:44.313Z,96370.16
2022-12-03T13:49:53.006Z,96374.97
2022-12-03T13:51:56.238Z,96374.16
2022-12-03T13:53:59.921Z,96367.44
2022-12-03T13:56:23.139Z,96364.00
2022-12-03T13:58:25.869Z,96361.94
2022-12-03T14:00:28.583Z,96358.25
2022-12-03T14:02:31.374Z,96362.31
2022-12-03T14:04:34.847Z,96365.00
2022-12-03T14:06:37.598Z,96369.84
2022-12-03T14:08:40.280Z,96368.13
2022-12-03T14:10:43.082Z,96358.72
2022-12-03T14:12:46.122Z,96354.06
2022-12-03T14:14:48.841Z,96359.13
2022-12-03T14:16:56.697Z,96359.16
2022-12-03T14:19:02.285Z,96354.69
2022-12-03T14:21:05.073Z,96349.41
2022-12-03T14:23:09.758Z,96350.81
2022-12-03T14:25:13.111Z,96352.25
2022-12-03T14:27:16.116Z,96353.84
2022-12-03T14:29:20.128Z,96352.78
2022-12-03T14:31:23.066Z,96359.31
2022-12-03T14:33:25.751Z,96352.78
2022-12-03T14:35:28.702Z,96351.16
2022-12-03T14:37:31.423Z,96343.25
2022-12-03T14:39:34.220Z,96349.91
2022-12-03T14:41:54.107Z,96345.53
2022-12-03T14:43:56.872Z,96343.53
2022-12-03T14:46:01.023Z,96343.16
2022-12-03T14:48:03.781Z,96346.22
2022-12-03T14:50:08.100Z,96339.31
2022-12-03T14:52:12.714Z,96346.44
2022-12-03T14:54:15.872Z,96340.94
2022-12-03T14:56:18.691Z,96339.94
2022-12-03T14:58:21.386Z,96340.53
2022-12-03T15:00:24.163Z,96344.13
2022-12-03T15:02:28.843Z,96339.47
2022-12-03T15:04:31.855Z,96334.59
2022-12-03T15:06:34.629Z,96339.28
2022-12-03T15:08:37.343Z,96341.72
2022-12-03T15:10:40.060Z,96338.84
2022-12-03T15:12:42.741Z,96339.41
2022-12-03T15:14:45.514Z,96343.44
2022-12-03T15:16:48.209Z,96343.41
2022-12-03T15:18:52.310Z,96338.16
2022-12-03T15:20:54.951Z,96337.56
2022-12-03T15:22:57.732Z,96338.78
2022-12-03T15:25:02.410Z,96332.63
2022-12-03T15:27:05.228Z,96337.91
2022-12-03T15:29:07.985Z,96334.88
2022-12-03T15:31:10.777Z,96332.69
2022-12-03T15:33:13.499Z,96334.72
2022-12-03T15:35:18.732Z,96340.25
2022-12-03T15:37:21.448Z,96340.41
2022-12-03T15:39:24.158Z,96337.38
2022-12-03T15:41:29.490Z,96325.94
2022-12-03T15:43:32.200Z,96334.25
2022-12-03T15:45:35.438Z,96334.97
2022-12-03T15:47:38.225Z,96334.53
2022-12-03T15:49:40.939Z,96323.81
2022-12-03T15:51:44.881Z,96331.91
2022-12-03T15:53:47.717Z,96335.56
2022-12-03T15:55:50.443Z,96334.09
2022-12-03T15:57:53.115Z,96328.94
2022-12-03T15:59:56.285Z,96332.13
2022-12-03T16:01:59.397Z,96336.03
2022-12-03T16:04:02.136Z,96344.69
2022-12-03T16:06:06.202Z,96335.78
2022-12-03T16:08:10.269Z,96335.97
2022-12-03T16:10:13.534Z,96339.19
2022-12-03T16:12:16.170Z,96334.53
2022-12-03T16:14:20.222Z,96331.13
2022-12-03T16:16:22.882Z,96328.31
2022-12-03T16:18:25.625Z,96334.41
2022-12-03T16:20:28.640Z,96327.94
2022-12-03T16:22:31.334Z,96327.13
2022-12-03T16:24:35.332Z,96328.31
2022-12-03T16:26:38.047Z,96333.00
2022-12-03T16:28:40.850Z,96341.53
2022-12-03T16:30:43.687Z,96336.56
2022-12-03T16:32:46.346Z,96331.91
2022-12-03T16:34:49.710Z,96334.47
2022-12-03T16:36:52.888Z,96333.00
2022-12-03T16:38:55.803Z,96334.97
2022-12-03T16:41:01.117Z,96327.63
2022-12-03T16:43:04.898Z,96326.44
2022-12-03T16:45:50.804Z,96333.13
2022-12-03T16:47:53.714Z,96332.94
2022-12-03T16:49:56.501Z,96321.97
2022-12-03T16:51:59.778Z,96332.09
2022-12-03T16:54:02.462Z,96327.63
2022-12-03T16:56:06.739Z,96331.47
2022-12-03T16:58:09.478Z,96327.44
2022-12-03T17:00:13.296Z,96324.19
2022-12-03T17:02:16.090Z,96323.94
2022-12-03T17:04:19.007Z,96334.41
2022-12-03T17:06:21.726Z,96336.03
2022-12-03T17:08:24.847Z,96326.56
2022-12-03T17:10:27.630Z,96324.88
2022-12-03T17:12:54.195Z,96317.94
2022-12-03T17:14:54.414Z,96324.19
2022-12-03T17:16:57.184Z,96317.63
2022-12-03T17:19:00.064Z,96320.69
2022-12-03T17:21:02.851Z,96323.13
2022-12-03T17:23:06.175Z,96317.84
2022-12-03T17:25:10.377Z,96319.13
2022-12-03T17:27:13.175Z,96324.00
2022-12-03T17:29:17.238Z,96318.34
2022-12-03T17:31:19.996Z,96319.59
2022-12-03T17:33:22.755Z,96321.25
2022-12-03T17:35:26.675Z,96322.47
2022-12-03T17:37:29.441Z,96314.84
2022-12-03T17:39:32.273Z,96318.53
2022-12-03T17:41:35.040Z,96315.19
2022-12-03T17:43:37.774Z,96322.41
2022-12-03T17:45:43.357Z,96320.97
2022-12-03T17:47:45.994Z,96326.44
2022-12-03T17:49:48.613Z,96325.00
2022-12-03T17:51:51.298Z,96330.50
2022-12-03T17:53:54.053Z,96323.38
2022-12-03T17:55:56.665Z,96326.63
2022-12-03T17:57:59.537Z,96330.06
2022-12-03T18:00:02.536Z,96329.88
2022-12-03T18:02:06.584Z,96324.22
2022-12-03T18:04:10.391Z,96322.19
2022-12-03T18:06:13.304Z,96326.22
2022-12-03T18:08:16.181Z,96322.56
2022-12-03T18:10:19.083Z,96320.75
2022-12-03T18:12:21.794Z,96320.28
2022-12-03T18:14:24.430Z,96324.38
2022-12-03T18:16:27.192Z,96324.38
2022-12-03T18:18:31.301Z,96321.38
2022-12-03T18:20:34.164Z,96321.56
2022-12-03T18:22:37.078Z,96314.66
2022-12-03T18:24:39.893Z,96315.84
2022-12-03T18:26:43.355Z,96315.47
2022-12-03T18:28:45.964Z,96321.59
2022-12-03T18:30:52.527Z,96317.78
2022-12-03T18:32:55.798Z,96315.31
2022-12-03T18:34:59.866Z,96315.16
2022-12-03T18:37:02.736Z,96310.06
2022-12-03T18:39:09.153Z,96313.69
2022-12-03T18:41:11.937Z,96317.13
2022-12-03T18:43:16.830Z,96324.84
2022-12-03T18:45:19.937Z,96318.78
2022-12-03T18:47:24.754Z,96314.31
2022-12-03T18:49:27.575Z,96311.84
2022-12-03T18:51:32.690Z,96318.47
2022-12-03T18:53:35.478Z,96316.47
2022-12-03T18:55:38.524Z,96317.09
2022-12-03T18:57:41.215Z,96316.94
2022-12-03T18:59:43.908Z,96317.59
2022-12-03T19:01:46.792Z,96314.97
2022-12-03T19:03:50.599Z,96309.94
2022-12-03T19:05:53.261Z,96311.19
2022-12-03T19:07:57.384Z,96310.84
2022-12-03T19:10:00.156Z,96304.56
2022-12-03T19:12:02.791Z,96312.47
2022-12-03T19:14:05.690Z,96314.84
2022-12-03T19:16:10.488Z,96316.09
2022-12-03T19:18:13.144Z,96314.09
2022-12-03T19:20:15.894Z,96321.38
2022-12-03T19:22:18.553Z,96322.38
2022-12-03T19:24:25.070Z,96320.09
2022-12-03T19:26:28.463Z,96318.94
2022-12-03T19:28:31.203Z,96311.19
2022-12-03T19:30:34.019Z,96310.22
2022-12-03T19:32:37.183Z,96305.56
2022-12-03T19:34:42.114Z,96307.59
2022-12-03T19:36:44.890Z,96307.13
2022-12-03T19:38:53.506Z,96309.94
2022-12-03T19:41:02.806Z,96314.84
2022-12-03T19:43:05.652Z,96309.63
2022-12-03T19:45:09.233Z,96310.06
2022-12-03T19:47:11.869Z,96296.69
2022-12-03T19:49:16.567Z,96295.66
2022-12-03T19:51:34.133Z,96299.69
2022-12-03T19:53:37.698Z,96300.09
2022-12-03T19:55:40.639Z,96295.38
2022-12-03T19:57:44.539Z,96289.75
2022-12-03T19:59:47.268Z,96295.84
2022-12-03T20:01:50.335Z,96295.66
2022-12-03T20:03:56.199Z,96295.66
2022-12-03T20:06:01.441Z,96293.41
2022-12-03T20:08:04.891Z,96295.13
2022-12-03T20:10:08.661Z,96293.50
2022-12-03T20:12:11.442Z,96292.13
2022-12-03T20:14:17.075Z,96300.66
2022-12-03T20:16:20.103Z,96302.31
2022-12-03T20:18:22.829Z,96295.38
2022-12-03T20:20:25.358Z,96307.38
2022-12-03T20:22:28.072Z,96299.78
2022-12-03T20:24:30.873Z,96301.16
